Current Weather

Benson

Benson, United Kingdom (EGUB)

Report from: Saturday, June 22, 2024 9:20 AM BST
Current time: Saturday, June 22, 2024 9:54 AM BST

Nearby weather – Weather history – Daily summaries
Weather forecast

Temperature15.0°C (59.0°F)
Dew point14.0°C (57.2°F)
Winds 4 kts (2.1 m/s, 4.6 mph) Northwest (310°)
Visibility6.2 mi. (10 km)
Clouds Scattered clouds 1,700 ft. (518 m)
Ceiling: Overcast 2,900 ft. (884 m)
Altimeter29.88 in.Hg (1012 mB)
Relative humidity94 %
Density altitude264 ft. (80 m)
Remarks Fully automated report
Flight conditions Marginal Visual Meteorological Conditions
Raw dataEGUB 220820Z AUTO 31004KT 9999 // SCT017/// OVC029/// 15/14 Q1012
An error has occurred. This application may no longer respond until reloaded. Reload 🗙